Wetterstation Vordersexau
Wetterdaten: Woche 03.02.14 - 09.02.14 (KW6)
Datum Zeit Temp. A. Feuchte A. Luftdruck Regen Wind Richtung Taupunkt Windchill Windben
03.02.2014 00:00 0,2 C 87 % 987,5 hPa 0,0 l/m 0,0 km/h O -1,7 C 0,2 C 0,0 km/h
03.02.2014 01:00 0,1 C 86 % 987,1 hPa 0,0 l/m 0,0 km/h O-NO -2,0 C 0,1 C 0,0 km/h
03.02.2014 02:00 0,4 C 85 % 986,4 hPa 0,0 l/m 0,0 km/h N-NO -1,8 C 0,4 C 0,0 km/h
03.02.2014 03:00 0,4 C 85 % 986,0 hPa 0,0 l/m 0,0 km/h N -1,8 C 0,4 C 0,0 km/h
03.02.2014 04:00 -0,4 C 85 % 985,3 hPa 0,0 l/m 1,1 km/h W-NW -2,6 C -0,4 C 1,1 km/h
03.02.2014 05:00 -1,2 C 85 % 984,7 hPa 0,0 l/m 0,0 km/h W-NW -3,4 C -1,2 C 0,0 km/h
03.02.2014 06:00 -1,9 C 85 % 983,8 hPa 0,0 l/m 0,0 km/h W-NW -4,1 C -1,9 C 0,0 km/h
03.02.2014 07:00 -0,5 C 84 % 983,1 hPa 0,0 l/m 0,0 km/h W-NW -2,9 C -0,5 C 0,0 km/h
03.02.2014 08:00 -0,1 C 84 % 982,3 hPa 0,0 l/m 0,0 km/h W-NW -2,5 C -0,1 C 0,0 km/h
03.02.2014 09:00 0,2 C 83 % 981,6 hPa 0,0 l/m 0,6 km/h W-NW -2,3 C 0,2 C 0,4 km/h
03.02.2014 10:00 0,9 C 82 % 981,0 hPa 0,0 l/m 0,0 km/h W-SW -1,8 C 0,9 C 0,0 km/h
03.02.2014 11:00 1,4 C 82 % 980,9 hPa 0,0 l/m 0,0 km/h W -1,3 C 1,4 C 0,0 km/h
03.02.2014 12:00 2,9 C 83 % 980,3 hPa 0,0 l/m 0,0 km/h W 0,3 C 2,9 C 0,0 km/h
03.02.2014 13:00 3,9 C 87 % 980,0 hPa 0,0 l/m 0,0 km/h O-SO 1,9 C 3,9 C 0,0 km/h
03.02.2014 14:00 6,1 C 86 % 979,1 hPa 0,0 l/m 0,0 km/h SO 3,9 C 6,1 C 0,0 km/h
03.02.2014 15:00 9,5 C 77 % 978,5 hPa 0,0 l/m 0,0 km/h SW 5,7 C 9,5 C 0,0 km/h
03.02.2014 16:00 10,5 C 69 % 978,5 hPa 0,0 l/m 0,0 km/h N-NW 5,1 C 10,5 C 0,0 km/h
03.02.2014 17:00 5,5 C 74 % 978,6 hPa 0,0 l/m 0,0 km/h N-NW 1,2 C 5,5 C 0,0 km/h
03.02.2014 18:00 2,0 C 84 % 978,5 hPa 0,0 l/m 0,0 km/h N-NW -0,4 C 2,0 C 0,0 km/h
03.02.2014 19:00 0,8 C 86 % 979,1 hPa 0,0 l/m 0,0 km/h NO -1,3 C 0,8 C 0,0 km/h
03.02.2014 20:00 0,3 C 87 % 978,9 hPa 0,0 l/m 0,0 km/h NO -1,6 C 0,3 C 0,0 km/h
03.02.2014 21:00 -0,1 C 88 % 979,4 hPa 0,0 l/m 0,0 km/h O-NO -1,8 C -0,1 C 0,0 km/h
03.02.2014 22:00 -0,1 C 87 % 979,7 hPa 0,0 l/m 0,0 km/h O-NO -2,0 C -0,1 C 0,0 km/h
03.02.2014 23:00 -0,6 C 87 % 980,1 hPa 0,0 l/m 0,0 km/h NO -2,5 C -0,6 C 0,0 km/h
04.02.2014 00:00 -0,6 C 87 % 980,9 hPa 0,0 l/m 0,0 km/h NO -2,5 C -0,6 C 0,0 km/h
04.02.2014 01:00 0,9 C 86 % 981,2 hPa 0,0 l/m 0,0 km/h O -1,2 C 0,9 C 0,0 km/h
04.02.2014 02:00 0,1 C 86 % 981,1 hPa 0,0 l/m 0,0 km/h O-SO -2,0 C 0,1 C 0,0 km/h
04.02.2014 03:00 0,3 C 85 % 981,0 hPa 0,0 l/m 0,0 km/h O -1,9 C 0,3 C 0,0 km/h
04.02.2014 04:00 0,8 C 85 % 981,2 hPa 0,0 l/m 0,0 km/h SO -1,4 C 0,8 C 0,0 km/h
04.02.2014 05:00 1,5 C 84 % 982,2 hPa 0,0 l/m 2,6 km/h O-NO -0,9 C 1,5 C 1,4 km/h
04.02.2014 06:00 1,9 C 83 % 981,6 hPa 0,0 l/m 0,0 km/h SO -0,7 C 1,9 C 0,0 km/h
04.02.2014 07:00 4,2 C 85 % 981,2 hPa 0,0 l/m 10,4 km/h SO 1,9 C 0,9 C 5,8 km/h
04.02.2014 08:00 6,2 C 84 % 981,4 hPa 0,0 l/m 0,0 km/h N-NO 3,7 C 6,2 C 0,0 km/h
04.02.2014 09:00 4,1 C 85 % 1008,9 hPa 0,0 l/m 0,0 km/h W 1,8 C 4,1 C 0,0 km/h
04.02.2014 10:00 4,4 C 87 % 1009,7 hPa 0,0 l/m 0,0 km/h W 2,4 C 4,4 C 0,0 km/h
04.02.2014 11:00 5,3 C 86 % 1010,0 hPa 0,0 l/m 0,0 km/h W-SW 3,2 C 5,3 C 0,0 km/h
04.02.2014 12:00 5,7 C 86 % 983,2 hPa 0,0 l/m 0,0 km/h O-NO 3,5 C 5,7 C 0,0 km/h
04.02.2014 13:00 5,8 C 85 % 982,9 hPa 0,0 l/m 0,0 km/h NO 3,5 C 5,8 C 0,0 km/h
04.02.2014 14:00 6,8 C 85 % 982,4 hPa 0,0 l/m 0,0 km/h W-SW 4,5 C 6,8 C 0,0 km/h
04.02.2014 15:00 10,0 C 78 % 982,1 hPa 0,0 l/m 0,0 km/h W 6,3 C 10,0 C 0,0 km/h
04.02.2014 16:00 10,1 C 73 % 981,9 hPa 0,0 l/m 0,0 km/h SO 5,5 C 10,1 C 0,0 km/h
04.02.2014 17:00 5,9 C 78 % 981,1 hPa 0,0 l/m 0,0 km/h SO 2,4 C 5,9 C 0,0 km/h
04.02.2014 18:00 2,9 C 84 % 1007,5 hPa 0,0 l/m 0,0 km/h O-SO 0,5 C 2,9 C 0,0 km/h
04.02.2014 19:00 1,6 C 87 % 1007,0 hPa 0,0 l/m 0,0 km/h NO -0,3 C 1,6 C 0,0 km/h
04.02.2014 20:00 1,8 C 88 % 1006,8 hPa 0,0 l/m 0,0 km/h NO 0,0 C 1,8 C 0,0 km/h
04.02.2014 21:00 0,5 C 88 % 978,7 hPa 0,0 l/m 0,0 km/h SO -1,3 C 0,5 C 0,0 km/h
04.02.2014 22:00 -0,4 C 88 % 978,4 hPa 0,0 l/m 1,1 km/h N-NO -2,1 C -0,4 C 1,1 km/h
04.02.2014 23:00 -0,8 C 88 % 977,9 hPa 0,0 l/m 0,0 km/h O-NO -2,5 C -0,8 C 0,0 km/h
05.02.2014 00:00 -0,9 C 87 % 977,2 hPa 0,0 l/m 0,0 km/h O-NO -2,8 C -0,9 C 0,0 km/h
05.02.2014 01:00 -1,4 C 87 % 976,0 hPa 0,0 l/m 0,0 km/h O-NO -3,3 C -1,4 C 0,0 km/h
05.02.2014 02:00 -1,7 C 87 % 975,3 hPa 0,0 l/m 0,0 km/h NO -3,6 C -1,7 C 0,0 km/h
05.02.2014 03:00 -1,1 C 86 % 974,3 hPa 0,0 l/m 0,0 km/h N-NO -3,1 C -1,1 C 0,0 km/h
05.02.2014 04:00 -1,6 C 86 % 973,4 hPa 0,0 l/m 0,0 km/h W -3,6 C -1,6 C 0,0 km/h
05.02.2014 05:00 -1,6 C 86 % 973,9 hPa 0,0 l/m 0,0 km/h N-NO -3,6 C -1,6 C 0,0 km/h
05.02.2014 06:00 -0,7 C 86 % 973,4 hPa 0,0 l/m 0,0 km/h S-SO -2,7 C -0,7 C 0,0 km/h
05.02.2014 07:00 -0,2 C 85 % 973,2 hPa 0,0 l/m 0,0 km/h SO -2,4 C -0,2 C 0,0 km/h
05.02.2014 08:00 0,3 C 84 % 972,9 hPa 0,0 l/m 0,0 km/h O-SO -2,1 C 0,3 C 0,0 km/h
05.02.2014 09:00 1,3 C 83 % 972,4 hPa 0,0 l/m 0,0 km/h N-NO -1,3 C 1,3 C 0,0 km/h
05.02.2014 10:00 2,1 C 84 % 971,8 hPa 0,0 l/m 0,0 km/h N-NW -0,3 C 2,1 C 0,0 km/h
05.02.2014 11:00 4,8 C 86 % 970,7 hPa 0,0 l/m 0,0 km/h W 2,7 C 4,8 C 0,0 km/h
05.02.2014 12:00 4,9 C 87 % 971,2 hPa 0,0 l/m 2,6 km/h N-NO 2,9 C 4,9 C 1,4 km/h
05.02.2014 13:00 4,6 C 87 % 971,3 hPa 0,0 l/m 0,0 km/h N 2,6 C 4,6 C 0,0 km/h
05.02.2014 14:00 5,2 C 87 % 970,3 hPa 0,8 l/m 0,0 km/h NW 3,2 C 5,2 C 0,0 km/h
05.02.2014 15:00 6,8 C 87 % 971,0 hPa 0,0 l/m 0,0 km/h S-SW 4,8 C 6,8 C 0,0 km/h
05.02.2014 16:00 7,8 C 82 % 972,8 hPa 0,8 l/m 40,8 km/h SW 4,9 C -4,5 C 22,7 km/h
05.02.2014 17:00 7,6 C 79 % 973,4 hPa 0,0 l/m 11,0 km/h W-SW 4,2 C 4,3 C 6,1 km/h
05.02.2014 18:00 7,4 C 78 % 975,0 hPa 0,0 l/m 3,9 km/h S-SW 3,8 C 7,4 C 2,2 km/h
05.02.2014 19:00 7,0 C 76 % 975,7 hPa 0,0 l/m 21,4 km/h W-SW 3,1 C -1,1 C 11,9 km/h
05.02.2014 20:00 6,2 C 75 % 976,3 hPa 0,0 l/m 1,3 km/h S 2,1 C 6,2 C 0,7 km/h
05.02.2014 21:00 6,2 C 74 % 976,5 hPa 0,0 l/m 18,4 km/h S 1,9 C -1,0 C 18,4 km/h
05.02.2014 22:00 6,9 C 70 % 977,3 hPa 0,0 l/m 15,1 km/h S-SW 1,8 C 1,3 C 15,1 km/h
05.02.2014 23:00 7,1 C 70 % 978,2 hPa 0,0 l/m 14,0 km/h W-SW 2,0 C 2,1 C 14,0 km/h
06.02.2014 00:00 7,0 C 69 % 978,9 hPa 0,0 l/m 14,4 km/h SW 1,7 C 1,8 C 14,4 km/h
06.02.2014 01:00 7,2 C 69 % 979,2 hPa 0,0 l/m 14,4 km/h SW 1,9 C 2,0 C 14,4 km/h
06.02.2014 02:00 7,0 C 70 % 979,7 hPa 0,0 l/m 14,8 km/h W 1,9 C 1,6 C 14,8 km/h
06.02.2014 03:00 6,6 C 73 % 980,1 hPa 0,0 l/m 6,5 km/h S-SW 2,1 C 6,5 C 6,5 km/h
06.02.2014 04:00 6,4 C 75 % 980,7 hPa 0,0 l/m 0,0 km/h W-SW 2,3 C 6,4 C 0,0 km/h
06.02.2014 05:00 6,8 C 74 % 981,2 hPa 0,0 l/m 6,5 km/h SW 2,5 C 6,7 C 3,6 km/h
06.02.2014 06:00 6,8 C 75 % 981,4 hPa 0,0 l/m 10,4 km/h SW 2,7 C 3,8 C 5,8 km/h
06.02.2014 07:00 6,6 C 76 % 982,0 hPa 0,0 l/m 8,4 km/h S 2,7 C 5,0 C 4,7 km/h
06.02.2014 08:00 5,8 C 78 % 982,2 hPa 0,0 l/m 2,6 km/h S-SW 2,3 C 5,8 C 1,4 km/h
06.02.2014 09:00 6,9 C 76 % 981,8 hPa 0,0 l/m 11,7 km/h S-SW 3,0 C 3,1 C 6,5 km/h
06.02.2014 10:00 11,1 C 67 % 981,8 hPa 0,0 l/m 14,9 km/h W-SW 5,2 C 6,5 C 8,3 km/h
06.02.2014 11:00 13,2 C 59 % 981,1 hPa 0,0 l/m 6,5 km/h W-SW 5,4 C 13,2 C 3,6 km/h
06.02.2014 12:00 14,7 C 53 % 979,9 hPa 0,0 l/m 13,0 km/h W-NW 5,2 C 11,5 C 7,2 km/h
06.02.2014 13:00 15,8 C 49 % 978,8 hPa 0,0 l/m 1,9 km/h W-SW 5,1 C 15,8 C 1,1 km/h
06.02.2014 14:00 16,6 C 45 % 977,9 hPa 0,0 l/m 11,0 km/h W 4,6 C 14,5 C 6,1 km/h
06.02.2014 15:00 16,5 C 41 % 977,1 hPa 0,0 l/m 1,9 km/h SO 3,2 C 16,5 C 1,1 km/h
06.02.2014 16:00 11,3 C 56 % 976,4 hPa 0,0 l/m 0,0 km/h SO 2,8 C 11,3 C 0,0 km/h
06.02.2014 17:00 10,9 C 52 % 975,3 hPa 0,0 l/m 13,6 km/h S-SO 1,4 C 6,8 C 7,6 km/h
06.02.2014 18:00 10,1 C 53 % 974,4 hPa 0,0 l/m 13,6 km/h S-SO 1,0 C 5,9 C 7,6 km/h
06.02.2014 19:00 9,9 C 53 % 973,5 hPa 0,0 l/m 0,0 km/h SO 0,8 C 9,9 C 0,0 km/h
06.02.2014 20:00 10,2 C 54 % 972,3 hPa 0,0 l/m 9,7 km/h S-SO 1,3 C 8,0 C 5,4 km/h
06.02.2014 21:00 9,4 C 60 % 971,6 hPa 0,0 l/m 14,4 km/h N-NO 2,0 C 4,7 C 14,4 km/h
06.02.2014 22:00 8,1 C 64 % 971,0 hPa 0,0 l/m 1,4 km/h N 1,7 C 8,1 C 1,4 km/h
06.02.2014 23:00 5,4 C 71 % 970,5 hPa 0,0 l/m 0,0 km/h N-NO 0,6 C 5,4 C 0,0 km/h
07.02.2014 00:00 4,4 C 77 % 969,3 hPa 0,0 l/m 0,0 km/h N-NO 0,7 C 4,4 C 0,0 km/h
07.02.2014 01:00 4,4 C 76 % 970,1 hPa 0,0 l/m 0,0 km/h O-NO 0,5 C 4,4 C 0,0 km/h
07.02.2014 02:00 3,3 C 80 % 968,9 hPa 0,0 l/m 0,0 km/h N-NO 0,2 C 3,3 C 0,0 km/h
07.02.2014 03:00 3,2 C 80 % 968,9 hPa 0,0 l/m 0,0 km/h N-NO 0,1 C 3,2 C 0,0 km/h
07.02.2014 04:00 1,8 C 83 % 969,1 hPa 0,0 l/m 0,0 km/h O -0,8 C 1,8 C 0,0 km/h
07.02.2014 05:00 3,2 C 85 % 969,3 hPa 0,0 l/m 0,0 km/h O 0,9 C 3,2 C 0,0 km/h
07.02.2014 06:00 5,1 C 83 % 968,8 hPa 0,0 l/m 0,0 km/h W-SW 2,5 C 5,1 C 0,0 km/h
07.02.2014 07:00 10,7 C 72 % 970,0 hPa 0,0 l/m 16,2 km/h S-SW 5,9 C 5,5 C 9,0 km/h
07.02.2014 08:00 8,6 C 84 % 971,7 hPa 0,0 l/m 25,3 km/h S-SW 6,1 C -0,1 C 14,0 km/h
07.02.2014 09:00 8,8 C 85 % 971,8 hPa 0,8 l/m 33,7 km/h S-SO 6,4 C -1,8 C 18,7 km/h
07.02.2014 10:00 10,7 C 72 % 972,5 hPa 0,8 l/m 50,5 km/h S-SW 5,9 C -1,3 C 28,1 km/h
07.02.2014 11:00 10,7 C 71 % 973,8 hPa 0,0 l/m 44,1 km/h W-SW 5,7 C -0,6 C 24,5 km/h
07.02.2014 12:00 10,1 C 72 % 975,1 hPa 0,0 l/m 17,5 km/h SW 5,3 C 4,3 C 9,7 km/h
07.02.2014 13:00 10,4 C 71 % 975,6 hPa 0,0 l/m 34,3 km/h S-SW 5,4 C 0,4 C 19,1 km/h
07.02.2014 14:00 10,1 C 69 % 976,3 hPa 0,0 l/m 26,6 km/h SW 4,7 C 1,6 C 14,8 km/h
07.02.2014 15:00 9,9 C 71 % 976,8 hPa 0,0 l/m 22,7 km/h W-SW 4,9 C 2,3 C 12,6 km/h
07.02.2014 16:00 10,4 C 69 % 977,2 hPa 0,0 l/m 21,4 km/h W 5,0 C 3,4 C 11,9 km/h
07.02.2014 17:00 9,4 C 69 % 977,6 hPa 0,0 l/m 20,7 km/h SW 4,0 C 2,3 C 11,5 km/h
07.02.2014 18:00 8,2 C 72 % 978,1 hPa 0,0 l/m 19,4 km/h W 3,5 C 1,2 C 10,8 km/h
07.02.2014 19:00 8,1 C 72 % 978,4 hPa 0,0 l/m 16,8 km/h W 3,4 C 2,1 C 9,4 km/h
07.02.2014 20:00 7,5 C 73 % 978,9 hPa 0,0 l/m 20,1 km/h S-SW 3,0 C 0,0 C 11,2 km/h
07.02.2014 21:00 6,9 C 74 % 979,6 hPa 0,0 l/m 14,4 km/h S-SW 2,6 C 1,7 C 14,4 km/h
07.02.2014 22:00 5,9 C 76 % 979,7 hPa 0,0 l/m 11,5 km/h S-SW 2,0 C 2,1 C 11,5 km/h
07.02.2014 23:00 5,4 C 76 % 979,9 hPa 0,0 l/m 9,0 km/h S-SO 1,5 C 3,2 C 9,0 km/h
08.02.2014 00:00 4,3 C 78 % 979,4 hPa 0,0 l/m 0,0 km/h S-SO 0,8 C 4,3 C 0,0 km/h
08.02.2014 01:00 3,6 C 79 % 979,0 hPa 0,0 l/m 0,0 km/h O-SO 0,3 C 3,6 C 0,0 km/h
08.02.2014 02:00 2,5 C 81 % 977,6 hPa 0,0 l/m 0,0 km/h SO -0,4 C 2,5 C 0,0 km/h
08.02.2014 03:00 4,5 C 76 % 976,7 hPa 0,0 l/m 3,2 km/h SO 0,6 C 4,5 C 3,2 km/h
08.02.2014 04:00 4,4 C 74 % 975,6 hPa 0,0 l/m 4,7 km/h N-NO 0,2 C 4,4 C 4,7 km/h
08.02.2014 05:00 2,1 C 79 % 974,6 hPa 0,0 l/m 0,0 km/h S-SO -1,2 C 2,1 C 0,0 km/h
08.02.2014 06:00 5,6 C 70 % 974,4 hPa 0,0 l/m 3,2 km/h O-SO 0,6 C 5,6 C 1,8 km/h
08.02.2014 07:00 5,3 C 70 % 973,2 hPa 0,0 l/m 0,0 km/h NO 0,3 C 5,3 C 0,0 km/h
08.02.2014 08:00 4,1 C 72 % 972,7 hPa 0,0 l/m 0,0 km/h S-SO -0,5 C 4,1 C 0,0 km/h
08.02.2014 09:00 7,4 C 65 % 971,8 hPa 0,0 l/m 1,9 km/h W-SW 1,3 C 7,4 C 1,1 km/h
08.02.2014 10:00 9,4 C 57 % 971,6 hPa 0,0 l/m 0,0 km/h SW 1,3 C 9,4 C 0,0 km/h
08.02.2014 11:00 13,0 C 51 % 970,4 hPa 0,0 l/m 8,4 km/h W-SW 3,1 C 11,8 C 4,7 km/h
08.02.2014 12:00 11,3 C 49 % 969,6 hPa 0,0 l/m 25,3 km/h W-SW 1,0 C 3,5 C 14,0 km/h
08.02.2014 13:00 9,4 C 58 % 969,2 hPa 0,0 l/m 20,1 km/h S 1,6 C 2,5 C 11,2 km/h
08.02.2014 14:00 7,9 C 71 % 969,1 hPa 0,0 l/m 15,6 km/h S-SO 3,0 C 2,3 C 8,6 km/h
08.02.2014 15:00 6,3 C 81 % 968,3 hPa 0,0 l/m 13,6 km/h S 3,3 C 1,4 C 7,6 km/h
08.02.2014 16:00 6,2 C 83 % 968,3 hPa 1,6 l/m 13,6 km/h S-SO 3,5 C 1,2 C 7,6 km/h
08.02.2014 17:00 5,9 C 85 % 995,2 hPa 0,0 l/m 4,5 km/h S 3,6 C 5,9 C 2,5 km/h
08.02.2014 18:00 5,9 C 85 % 995,5 hPa 1,6 l/m 5,2 km/h S-SW 3,6 C 5,9 C 2,9 km/h
08.02.2014 19:00 7,2 C 83 % 995,2 hPa 0,0 l/m 29,8 km/h W-SW 4,5 C -3,2 C 16,6 km/h
08.02.2014 20:00 7,4 C 78 % 995,5 hPa 0,0 l/m 23,3 km/h S 3,8 C -1,2 C 13,0 km/h
08.02.2014 21:00 7,3 C 79 % 968,4 hPa 0,0 l/m 13,7 km/h SW 3,9 C 2,5 C 13,7 km/h
08.02.2014 22:00 7,9 C 76 % 969,4 hPa 0,0 l/m 13,7 km/h SW 3,9 C 3,2 C 13,7 km/h
08.02.2014 23:00 7,3 C 76 % 969,9 hPa 0,0 l/m 13,3 km/h W-SW 3,4 C 2,7 C 13,3 km/h
09.02.2014 00:00 7,1 C 73 % 970,2 hPa 0,0 l/m 31,7 km/h S 2,6 C -3,8 C 31,7 km/h
09.02.2014 01:00 7,1 C 71 % 970,7 hPa 0,0 l/m 14,0 km/h S-SO 2,2 C 2,1 C 14,0 km/h
09.02.2014 02:00 6,5 C 72 % 970,8 hPa 0,0 l/m 18,7 km/h W 1,8 C -0,7 C 18,7 km/h
09.02.2014 03:00 5,4 C 72 % 970,4 hPa 0,0 l/m 15,8 km/h SW 0,8 C -0,8 C 15,8 km/h
09.02.2014 04:00 4,9 C 74 % 970,3 hPa 0,0 l/m 10,8 km/h S-SW 0,7 C 1,4 C 10,8 km/h
09.02.2014 05:00 5,3 C 71 % 970,6 hPa 0,0 l/m 25,9 km/h S-SO 0,5 C -4,8 C 14,4 km/h
09.02.2014 06:00 5,9 C 68 % 971,0 hPa 0,0 l/m 25,3 km/h W 0,5 C -3,8 C 14,0 km/h
09.02.2014 07:00 5,6 C 67 % 971,5 hPa 0,0 l/m 11,7 km/h W-SW -0,0 C 1,6 C 6,5 km/h
09.02.2014 08:00 5,5 C 68 % 972,1 hPa 0,0 l/m 33,7 km/h W-SW 0,1 C -6,5 C 18,7 km/h
09.02.2014 09:00 5,9 C 70 % 972,6 hPa 0,0 l/m 28,5 km/h SW 0,9 C -4,7 C 15,8 km/h
09.02.2014 10:00 6,8 C 71 % 973,0 hPa 0,0 l/m 22,7 km/h SW 1,9 C -1,8 C 12,6 km/h
09.02.2014 11:00 7,1 C 70 % 973,3 hPa 0,0 l/m 22,0 km/h SW 2,0 C -1,2 C 12,2 km/h
09.02.2014 12:00 7,6 C 67 % 973,3 hPa 0,0 l/m 18,8 km/h S-SW 1,9 C 0,6 C 10,4 km/h
09.02.2014 19:00 5,1 C 64 % 973,5 hPa 15,2 l/m 7,6 km/h S-SW -1,1 C 4,0 C 7,6 km/h
09.02.2014 20:00 6,4 C 58 % 973,5 hPa 0,0 l/m 13,3 km/h S -1,2 C 1,6 C 13,3 km/h
09.02.2014 21:00 5,3 C 60 % 973,1 hPa 0,0 l/m 2,5 km/h N -1,8 C 5,3 C 2,5 km/h
09.02.2014 22:00 1,8 C 70 % 972,1 hPa 0,0 l/m 0,0 km/h O-SO -3,1 C 1,8 C 0,0 km/h
09.02.2014 23:00 0,8 C 75 % 971,3 hPa 0,0 l/m 0,0 km/h SO -3,1 C 0,8 C 0,0 km/h
Min-Datum _ 03.02.14 06.02.14 08.02.14 - 03.02.14 - 03.02.14 09.02.14 03.02.14
_ Min-Zeit 06:19 15:19 15:19 - 00:19 - 06:19 08:19 00:19
Minimum _ -1,9 C 41 % 968,3 hPa - 0,0 km/h - -4,1 C -6,5 C 0,0 km/h
Max-Datum _ 06.02.14 03.02.14 04.02.14 09.02.14 07.02.14 - 07.02.14 06.02.14 09.02.14
_ Max-Zeit 14:19 21:19 11:19 19:19 10:19 - 09:19 15:19 00:19
Maximum _ 16,6 C 88 % 1010,0 hPa 15,2 l/m 50,5 km/h
S-SW
- 6,4 C 16,5 C 31,7 km/h
S
Durchschnitt _ 5,3 C 76 % 977,9 hPa #21,4 l/m 7,8 km/h W-SW 1,3 C 2,9 C 5,2 km/h
www.sexauwetter.de